sensor_id;sensor_type;location;lat;lon;timestamp;temperature;humidity
49503;DHT22;35409;48.776;9.204;2022-10-18T05:43:40;16.30;99.90
49503;DHT22;35409;48.776;9.204;2022-10-18T05:46:06;16.50;99.90
49503;DHT22;35409;48.776;9.204;2022-10-18T05:48:33;16.70;99.90
49503;DHT22;35409;48.776;9.204;2022-10-18T05:50:59;16.70;99.90
49503;DHT22;35409;48.776;9.204;2022-10-18T05:53:26;16.70;99.90
49503;DHT22;35409;48.776;9.204;2022-10-18T05:55:52;16.70;99.90
49503;DHT22;35409;48.776;9.204;2022-10-18T05:58:17;16.70;99.90
49503;DHT22;35409;48.776;9.204;2022-10-18T06:00:43;16.70;99.90
49503;DHT22;35409;48.776;9.204;2022-10-18T06:03:09;16.70;99.90
49503;DHT22;35409;48.776;9.204;2022-10-18T06:05:34;16.70;99.90
49503;DHT22;35409;48.776;9.204;2022-10-18T06:08:00;16.70;99.90
49503;DHT22;35409;48.776;9.204;2022-10-18T06:10:25;16.70;99.90
49503;DHT22;35409;48.776;9.204;2022-10-18T06:12:51;16.70;99.90
49503;DHT22;35409;48.776;9.204;2022-10-18T06:15:17;16.70;99.90
49503;DHT22;35409;48.776;9.204;2022-10-18T06:17:42;16.70;99.90
49503;DHT22;35409;48.776;9.204;2022-10-18T06:20:08;16.70;99.90
49503;DHT22;35409;48.776;9.204;2022-10-18T06:22:34;16.80;99.90
49503;DHT22;35409;48.776;9.204;2022-10-18T06:24:59;16.80;99.90
49503;DHT22;35409;48.776;9.204;2022-10-18T06:27:25;16.90;99.90
49503;DHT22;35409;48.776;9.204;2022-10-18T06:29:51;17.10;99.90
49503;DHT22;35409;48.776;9.204;2022-10-18T06:32:16;17.20;99.90
49503;DHT22;35409;48.776;9.204;2022-10-18T06:34:42;17.40;99.90
49503;DHT22;35409;48.776;9.204;2022-10-18T06:37:08;17.60;99.90
49503;DHT22;35409;48.776;9.204;2022-10-18T06:39:34;17.70;99.90
49503;DHT22;35409;48.776;9.204;2022-10-18T06:41:59;17.90;99.90
49503;DHT22;35409;48.776;9.204;2022-10-18T06:44:25;18.10;99.90
49503;DHT22;35409;48.776;9.204;2022-10-18T06:46:50;18.20;99.90
49503;DHT22;35409;48.776;9.204;2022-10-18T06:49:18;18.30;99.90
49503;DHT22;35409;48.776;9.204;2022-10-18T06:51:44;18.50;99.90
49503;DHT22;35409;48.776;9.204;2022-10-18T06:54:10;18.50;99.90
49503;DHT22;35409;48.776;9.204;2022-10-18T06:56:36;18.60;99.90
49503;DHT22;35409;48.776;9.204;2022-10-18T06:59:02;18.80;99.90
49503;DHT22;35409;48.776;9.204;2022-10-18T07:01:28;18.80;99.90
49503;DHT22;35409;48.776;9.204;2022-10-18T07:03:54;18.80;99.90
49503;DHT22;35409;48.776;9.204;2022-10-18T07:06:21;18.90;99.90
49503;DHT22;35409;48.776;9.204;2022-10-18T07:08:48;19.00;99.90
49503;DHT22;35409;48.776;9.204;2022-10-18T07:11:17;18.90;99.90
49503;DHT22;35409;48.776;9.204;2022-10-18T07:13:42;19.00;99.90
49503;DHT22;35409;48.776;9.204;2022-10-18T07:16:10;19.00;99.90
49503;DHT22;35409;48.776;9.204;2022-10-18T07:18:38;19.00;99.90
49503;DHT22;35409;48.776;9.204;2022-10-18T07:21:08;19.00;99.90
49503;DHT22;35409;48.776;9.204;2022-10-18T07:23:35;19.00;99.90
49503;DHT22;35409;48.776;9.204;2022-10-18T07:26:02;19.00;99.90
49503;DHT22;35409;48.776;9.204;2022-10-18T07:28:29;19.00;99.90
49503;DHT22;35409;48.776;9.204;2022-10-18T07:30:54;19.10;99.90
49503;DHT22;35409;48.776;9.204;2022-10-18T07:33:20;19.20;99.90
49503;DHT22;35409;48.776;9.204;2022-10-18T07:35:46;19.30;99.90
49503;DHT22;35409;48.776;9.204;2022-10-18T07:38:12;19.30;99.90
49503;DHT22;35409;48.776;9.204;2022-10-18T07:40:38;19.30;99.90
49503;DHT22;35409;48.776;9.204;2022-10-18T07:43:03;19.40;99.90
49503;DHT22;35409;48.776;9.204;2022-10-18T07:45:29;19.40;99.90
49503;DHT22;35409;48.776;9.204;2022-10-18T07:47:55;19.50;99.90
49503;DHT22;35409;48.776;9.204;2022-10-18T07:50:21;19.50;99.90
49503;DHT22;35409;48.776;9.204;2022-10-18T07:52:47;19.60;99.90
49503;DHT22;35409;48.776;9.204;2022-10-18T07:55:12;19.70;99.90
49503;DHT22;35409;48.776;9.204;2022-10-18T07:57:38;19.70;99.90
49503;DHT22;35409;48.776;9.204;2022-10-18T08:00:04;19.80;99.90
49503;DHT22;35409;48.776;9.204;2022-10-18T08:02:29;19.90;99.90
49503;DHT22;35409;48.776;9.204;2022-10-18T08:04:55;20.00;99.90
49503;DHT22;35409;48.776;9.204;2022-10-18T08:07:20;20.10;99.90
49503;DHT22;35409;48.776;9.204;2022-10-18T08:09:46;20.10;99.90
49503;DHT22;35409;48.776;9.204;2022-10-18T08:12:12;20.20;99.90
49503;DHT22;35409;48.776;9.204;2022-10-18T08:14:39;20.30;99.90
49503;DHT22;35409;48.776;9.204;2022-10-18T08:17:05;20.40;99.90
49503;DHT22;35409;48.776;9.204;2022-10-18T08:19:31;20.40;99.90
49503;DHT22;35409;48.776;9.204;2022-10-18T08:21:56;20.40;99.90
49503;DHT22;35409;48.776;9.204;2022-10-18T08:24:22;20.40;99.90
49503;DHT22;35409;48.776;9.204;2022-10-18T08:26:48;20.40;99.90
49503;DHT22;35409;48.776;9.204;2022-10-18T08:29:13;20.30;99.90
49503;DHT22;35409;48.776;9.204;2022-10-18T08:31:39;20.20;99.90
49503;DHT22;35409;48.776;9.204;2022-10-18T08:34:05;20.20;99.90
49503;DHT22;35409;48.776;9.204;2022-10-18T08:36:30;20.20;99.90
49503;DHT22;35409;48.776;9.204;2022-10-18T08:38:56;20.20;99.90
49503;DHT22;35409;48.776;9.204;2022-10-18T08:44:26;20.30;99.90
49503;DHT22;35409;48.776;9.204;2022-10-18T08:46:59;20.30;99.90
49503;DHT22;35409;48.776;9.204;2022-10-18T08:49:52;20.30;99.90
49503;DHT22;35409;48.776;9.204;2022-10-18T08:55:27;20.40;99.90
49503;DHT22;35409;48.776;9.204;2022-10-18T08:57:56;20.50;99.90
49503;DHT22;35409;48.776;9.204;2022-10-18T09:00:24;20.60;99.90
49503;DHT22;35409;48.776;9.204;2022-10-18T09:03:00;20.80;99.90
49503;DHT22;35409;48.776;9.204;2022-10-18T09:05:51;20.90;99.90
49503;DHT22;35409;48.776;9.204;2022-10-18T09:11:04;21.10;99.90
49503;DHT22;35409;48.776;9.204;2022-10-18T09:16:36;21.10;99.90
49503;DHT22;35409;48.776;9.204;2022-10-18T09:19:29;21.10;99.90
49503;DHT22;35409;48.776;9.204;2022-10-18T09:22:15;21.10;99.90
49503;DHT22;35409;48.776;9.204;2022-10-18T09:40:23;22.80;99.90
49503;DHT22;35409;48.776;9.204;2022-10-18T09:43:06;23.00;99.90
49503;DHT22;35409;48.776;9.204;2022-10-18T09:45:39;23.10;99.90
49503;DHT22;35409;48.776;9.204;2022-10-18T09:48:28;22.80;99.90
49503;DHT22;35409;48.776;9.204;2022-10-18T09:51:00;22.40;99.90
49503;DHT22;35409;48.776;9.204;2022-10-18T09:53:41;22.10;99.90
49503;DHT22;35409;48.776;9.204;2022-10-18T09:56:16;21.80;99.90
49503;DHT22;35409;48.776;9.204;2022-10-18T09:58:48;21.50;99.90
49503;DHT22;35409;48.776;9.204;2022-10-18T10:01:21;21.40;99.90
49503;DHT22;35409;48.776;9.204;2022-10-18T10:03:47;21.40;99.90
49503;DHT22;35409;48.776;9.204;2022-10-18T10:09:00;21.00;99.90
49503;DHT22;35409;48.776;9.204;2022-10-18T10:14:16;20.90;99.90
49503;DHT22;35409;48.776;9.204;2022-10-18T10:17:05;20.70;99.90
49503;DHT22;35409;48.776;9.204;2022-10-18T10:20:14;20.60;99.90
49503;DHT22;35409;48.776;9.204;2022-10-18T10:22:43;20.60;99.90
49503;DHT22;35409;48.776;9.204;2022-10-18T10:25:24;20.50;99.90
49503;DHT22;35409;48.776;9.204;2022-10-18T10:27:52;20.50;99.90
49503;DHT22;35409;48.776;9.204;2022-10-18T10:30:27;20.50;99.90
49503;DHT22;35409;48.776;9.204;2022-10-18T10:32:54;20.60;99.90
49503;DHT22;35409;48.776;9.204;2022-10-18T10:37:53;20.50;99.90
49503;DHT22;35409;48.776;9.204;2022-10-18T10:40:22;20.40;99.90
49503;DHT22;35409;48.776;9.204;2022-10-18T10:45:56;20.70;99.90
49503;DHT22;35409;48.776;9.204;2022-10-18T10:48:23;20.80;99.90
49503;DHT22;35409;48.776;9.204;2022-10-18T10:50:55;20.90;99.90
49503;DHT22;35409;48.776;9.204;2022-10-18T10:53:37;21.00;99.90
49503;DHT22;35409;48.776;9.204;2022-10-18T10:56:05;21.10;99.90
49503;DHT22;35409;48.776;9.204;2022-10-18T10:58:37;21.20;99.90
49503;DHT22;35409;48.776;9.204;2022-10-18T11:01:26;21.30;99.90
49503;DHT22;35409;48.776;9.204;2022-10-18T11:03:56;21.60;99.90
49503;DHT22;35409;48.776;9.204;2022-10-18T11:06:36;21.60;99.90
49503;DHT22;35409;48.776;9.204;2022-10-18T11:09:09;21.60;99.90
49503;DHT22;35409;48.776;9.204;2022-10-18T11:11:41;21.70;99.90
49503;DHT22;35409;48.776;9.204;2022-10-18T11:14:35;21.60;99.90
49503;DHT22;35409;48.776;9.204;2022-10-18T11:17:20;21.60;99.90
49503;DHT22;35409;48.776;9.204;2022-10-18T11:22:52;21.40;99.90
49503;DHT22;35409;48.776;9.204;2022-10-18T11:25:24;21.30;99.90
49503;DHT22;35409;48.776;9.204;2022-10-18T11:28:07;21.30;99.90
49503;DHT22;35409;48.776;9.204;2022-10-18T11:41:49;22.10;99.90
49503;DHT22;35409;48.776;9.204;2022-10-18T11:44:35;22.40;99.90
49503;DHT22;35409;48.776;9.204;2022-10-18T11:49:55;22.80;99.90
49503;DHT22;35409;48.776;9.204;2022-10-18T11:55:43;23.30;99.90
49503;DHT22;35409;48.776;9.204;2022-10-18T12:04:10;24.10;99.90
49503;DHT22;35409;48.776;9.204;2022-10-18T12:06:41;24.30;99.90
49503;DHT22;35409;48.776;9.204;2022-10-18T12:09:30;24.30;99.90
49503;DHT22;35409;48.776;9.204;2022-10-18T12:12:05;24.30;99.90
49503;DHT22;35409;48.776;9.204;2022-10-18T12:14:37;24.20;99.90
49503;DHT22;35409;48.776;9.204;2022-10-18T12:17:21;24.10;99.90
49503;DHT22;35409;48.776;9.204;2022-10-18T12:22:27;24.10;99.90
49503;DHT22;35409;48.776;9.204;2022-10-18T12:24:56;24.40;99.90
49503;DHT22;35409;48.776;9.204;2022-10-18T12:27:32;24.80;99.90
49503;DHT22;35409;48.776;9.204;2022-10-18T12:30:10;24.80;99.90
49503;DHT22;35409;48.776;9.204;2022-10-18T12:32:39;24.80;99.90
49503;DHT22;35409;48.776;9.204;2022-10-18T12:35:14;24.40;99.90
49503;DHT22;35409;48.776;9.204;2022-10-18T12:37:55;24.00;99.90
49503;DHT22;35409;48.776;9.204;2022-10-18T12:40:40;23.70;99.90
49503;DHT22;35409;48.776;9.204;2022-10-18T12:43:20;23.50;99.90
49503;DHT22;35409;48.776;9.204;2022-10-18T12:45:55;23.90;99.90
49503;DHT22;35409;48.776;9.204;2022-10-18T12:48:29;24.20;99.90
49503;DHT22;35409;48.776;9.204;2022-10-18T12:51:17;24.20;99.90
49503;DHT22;35409;48.776;9.204;2022-10-18T12:54:31;23.90;99.90
49503;DHT22;35409;48.776;9.204;2022-10-18T12:56:35;23.90;99.90
49503;DHT22;35409;48.776;9.204;2022-10-18T13:15:15;23.40;99.90
49503;DHT22;35409;48.776;9.204;2022-10-18T13:23:30;24.00;99.90
49503;DHT22;35409;48.776;9.204;2022-10-18T13:28:58;23.90;99.90
49503;DHT22;35409;48.776;9.204;2022-10-18T13:33:53;24.40;99.90
49503;DHT22;35409;48.776;9.204;2022-10-18T13:36:24;24.40;99.90
49503;DHT22;35409;48.776;9.204;2022-10-18T13:41:21;23.70;99.90
49503;DHT22;35409;48.776;9.204;2022-10-18T13:44:23;23.50;99.90
49503;DHT22;35409;48.776;9.204;2022-10-18T13:55:00;23.90;99.90
49503;DHT22;35409;48.776;9.204;2022-10-18T14:06:17;22.80;99.90
49503;DHT22;35409;48.776;9.204;2022-10-18T14:11:31;22.60;99.90
49503;DHT22;35409;48.776;9.204;2022-10-18T14:22:35;22.20;99.90
49503;DHT22;35409;48.776;9.204;2022-10-18T14:25:15;22.10;99.90
49503;DHT22;35409;48.776;9.204;2022-10-18T14:27:42;21.90;99.90
49503;DHT22;35409;48.776;9.204;2022-10-18T14:32:51;21.60;99.90
49503;DHT22;35409;48.776;9.204;2022-10-18T14:35:30;21.50;99.90
49503;DHT22;35409;48.776;9.204;2022-10-18T14:37:56;21.30;99.90
49503;DHT22;35409;48.776;9.204;2022-10-18T14:40:26;21.20;99.90
49503;DHT22;35409;48.776;9.204;2022-10-18T14:42:52;21.10;99.90
49503;DHT22;35409;48.776;9.204;2022-10-18T14:45:21;21.00;99.90
49503;DHT22;35409;48.776;9.204;2022-10-18T14:47:48;20.90;99.90
49503;DHT22;35409;48.776;9.204;2022-10-18T14:50:25;20.80;99.90
49503;DHT22;35409;48.776;9.204;2022-10-18T14:52:52;20.80;99.90
49503;DHT22;35409;48.776;9.204;2022-10-18T14:55:25;20.80;99.90
49503;DHT22;35409;48.776;9.204;2022-10-18T14:57:53;20.80;99.90
49503;DHT22;35409;48.776;9.204;2022-10-18T15:00:22;20.70;99.90
49503;DHT22;35409;48.776;9.204;2022-10-18T15:02:50;20.70;99.90
49503;DHT22;35409;48.776;9.204;2022-10-18T15:05:22;20.80;99.90
49503;DHT22;35409;48.776;9.204;2022-10-18T15:07:48;21.00;99.90
49503;DHT22;35409;48.776;9.204;2022-10-18T15:10:25;21.10;99.90
49503;DHT22;35409;48.776;9.204;2022-10-18T15:12:52;21.10;99.90
49503;DHT22;35409;48.776;9.204;2022-10-18T15:15:24;21.00;99.90
49503;DHT22;35409;48.776;9.204;2022-10-18T15:17:52;20.90;99.90
49503;DHT22;35409;48.776;9.204;2022-10-18T15:20:44;20.90;99.90
49503;DHT22;35409;48.776;9.204;2022-10-18T15:23:23;20.90;99.90
49503;DHT22;35409;48.776;9.204;2022-10-18T15:25:50;20.70;99.90
49503;DHT22;35409;48.776;9.204;2022-10-18T15:28:32;20.70;99.90
49503;DHT22;35409;48.776;9.204;2022-10-18T15:31:00;20.60;99.90
49503;DHT22;35409;48.776;9.204;2022-10-18T15:33:27;20.50;99.90
49503;DHT22;35409;48.776;9.204;2022-10-18T15:36:08;20.40;99.90
49503;DHT22;35409;48.776;9.204;2022-10-18T15:38:34;20.20;99.90
49503;DHT22;35409;48.776;9.204;2022-10-18T15:41:34;20.20;99.90
49503;DHT22;35409;48.776;9.204;2022-10-18T15:43:48;20.20;99.90
49503;DHT22;35409;48.776;9.204;2022-10-18T15:46:30;20.10;99.90
49503;DHT22;35409;48.776;9.204;2022-10-18T15:51:46;19.80;99.90
49503;DHT22;35409;48.776;9.204;2022-10-18T15:54:28;19.80;99.90
49503;DHT22;35409;48.776;9.204;2022-10-18T15:56:54;19.80;99.90
49503;DHT22;35409;48.776;9.204;2022-10-18T15:59:29;19.70;99.90
49503;DHT22;35409;48.776;9.204;2022-10-18T16:01:56;18.70;99.90
49503;DHT22;35409;48.776;9.204;2022-10-18T16:04:30;19.70;99.90
49503;DHT22;35409;48.776;9.204;2022-10-18T16:06:57;19.60;99.90
49503;DHT22;35409;48.776;9.204;2022-10-18T16:09:25;19.50;99.90
49503;DHT22;35409;48.776;9.204;2022-10-18T16:11:51;19.50;99.90
49503;DHT22;35409;48.776;9.204;2022-10-18T16:14:17;19.50;99.90
49503;DHT22;35409;48.776;9.204;2022-10-18T16:16:43;19.40;99.90
49503;DHT22;35409;48.776;9.204;2022-10-18T16:19:13;19.40;99.90
49503;DHT22;35409;48.776;9.204;2022-10-18T16:21:40;19.30;99.90
49503;DHT22;35409;48.776;9.204;2022-10-18T16:24:06;19.30;99.90
49503;DHT22;35409;48.776;9.204;2022-10-18T16:26:33;19.30;99.90
49503;DHT22;35409;48.776;9.204;2022-10-18T16:28:59;19.20;99.90
49503;DHT22;35409;48.776;9.204;2022-10-18T16:31:27;19.20;99.90
49503;DHT22;35409;48.776;9.204;2022-10-18T16:33:54;19.10;99.90
49503;DHT22;35409;48.776;9.204;2022-10-18T16:36:22;19.10;99.90
49503;DHT22;35409;48.776;9.204;2022-10-18T16:38:49;19.00;99.90
49503;DHT22;35409;48.776;9.204;2022-10-18T16:41:15;18.90;99.90
49503;DHT22;35409;48.776;9.204;2022-10-18T16:43:44;18.90;99.90
49503;DHT22;35409;48.776;9.204;2022-10-18T16:46:21;18.80;99.90
49503;DHT22;35409;48.776;9.204;2022-10-18T16:48:48;18.80;99.90
49503;DHT22;35409;48.776;9.204;2022-10-18T16:51:14;18.70;99.90
49503;DHT22;35409;48.776;9.204;2022-10-18T16:53:40;18.70;99.90
49503;DHT22;35409;48.776;9.204;2022-10-18T16:56:12;18.60;99.90
49503;DHT22;35409;48.776;9.204;2022-10-18T16:58:39;18.60;99.90
49503;DHT22;35409;48.776;9.204;2022-10-18T17:01:04;18.50;99.90
49503;DHT22;35409;48.776;9.204;2022-10-18T17:03:30;18.50;99.90
49503;DHT22;35409;48.776;9.204;2022-10-18T17:05:55;18.50;99.90
49503;DHT22;35409;48.776;9.204;2022-10-18T17:08:26;18.50;99.90
49503;DHT22;35409;48.776;9.204;2022-10-18T17:10:54;18.50;99.90
49503;DHT22;35409;48.776;9.204;2022-10-18T17:13:21;18.50;99.90
49503;DHT22;35409;48.776;9.204;2022-10-18T17:15:48;18.40;99.90
49503;DHT22;35409;48.776;9.204;2022-10-18T17:18:22;18.40;99.90
49503;DHT22;35409;48.776;9.204;2022-10-18T17:20:50;18.40;99.90
49503;DHT22;35409;48.776;9.204;2022-10-18T17:23:16;18.40;99.90
49503;DHT22;35409;48.776;9.204;2022-10-18T17:25:42;18.30;99.90
49503;DHT22;35409;48.776;9.204;2022-10-18T17:28:11;18.30;99.90
49503;DHT22;35409;48.776;9.204;2022-10-18T17:30:37;18.30;99.90
49503;DHT22;35409;48.776;9.204;2022-10-18T17:33:03;18.40;99.90
49503;DHT22;35409;48.776;9.204;2022-10-18T17:35:29;18.40;99.90
49503;DHT22;35409;48.776;9.204;2022-10-18T17:37:55;18.40;99.90
49503;DHT22;35409;48.776;9.204;2022-10-18T17:40:21;18.30;99.90
49503;DHT22;35409;48.776;9.204;2022-10-18T17:42:52;18.30;99.90
49503;DHT22;35409;48.776;9.204;2022-10-18T17:45:18;18.20;99.90
49503;DHT22;35409;48.776;9.204;2022-10-18T17:47:44;18.20;99.90
49503;DHT22;35409;48.776;9.204;2022-10-18T17:50:10;18.10;99.90
49503;DHT22;35409;48.776;9.204;2022-10-18T17:52:43;18.00;99.90
49503;DHT22;35409;48.776;9.204;2022-10-18T17:55:10;18.10;99.90
49503;DHT22;35409;48.776;9.204;2022-10-18T17:57:36;18.00;99.90
49503;DHT22;35409;48.776;9.204;2022-10-18T18:00:04;17.90;99.90
49503;DHT22;35409;48.776;9.204;2022-10-18T18:02:30;17.90;99.90
49503;DHT22;35409;48.776;9.204;2022-10-18T18:04:55;17.80;99.90
49503;DHT22;35409;48.776;9.204;2022-10-18T18:07:21;17.70;99.90
49503;DHT22;35409;48.776;9.204;2022-10-18T18:09:47;17.60;99.90
49503;DHT22;35409;48.776;9.204;2022-10-18T18:12:13;17.50;99.90
49503;DHT22;35409;48.776;9.204;2022-10-18T18:14:38;17.50;99.90
49503;DHT22;35409;48.776;9.204;2022-10-18T18:17:04;17.40;99.90
49503;DHT22;35409;48.776;9.204;2022-10-18T18:19:30;17.30;99.90
49503;DHT22;35409;48.776;9.204;2022-10-18T18:21:56;17.20;99.90
49503;DHT22;35409;48.776;9.204;2022-10-18T18:24:23;17.10;99.90
49503;DHT22;35409;48.776;9.204;2022-10-18T18:26:52;17.00;99.90
49503;DHT22;35409;48.776;9.204;2022-10-18T18:29:19;16.90;99.90
49503;DHT22;35409;48.776;9.204;2022-10-18T18:31:45;16.80;99.90
49503;DHT22;35409;48.776;9.204;2022-10-18T18:34:11;16.70;99.90
49503;DHT22;35409;48.776;9.204;2022-10-18T18:36:37;16.60;99.90
49503;DHT22;35409;48.776;9.204;2022-10-18T18:39:06;16.50;99.90
49503;DHT22;35409;48.776;9.204;2022-10-18T18:41:33;16.40;99.90
49503;DHT22;35409;48.776;9.204;2022-10-18T18:44:01;16.30;99.90
49503;DHT22;35409;48.776;9.204;2022-10-18T18:46:28;16.30;99.90
49503;DHT22;35409;48.776;9.204;2022-10-18T18:49:15;16.20;99.90
49503;DHT22;35409;48.776;9.204;2022-10-18T18:51:41;16.20;99.90
49503;DHT22;35409;48.776;9.204;2022-10-18T18:54:09;16.10;99.90
49503;DHT22;35409;48.776;9.204;2022-10-18T18:59:01;15.90;99.90
49503;DHT22;35409;48.776;9.204;2022-10-18T19:01:29;15.80;99.90
49503;DHT22;35409;48.776;9.204;2022-10-18T19:03:57;15.80;99.90
49503;DHT22;35409;48.776;9.204;2022-10-18T19:06:29;15.70;99.90
49503;DHT22;35409;48.776;9.204;2022-10-18T19:08:56;15.70;99.90
49503;DHT22;35409;48.776;9.204;2022-10-18T19:11:35;15.60;99.90
49503;DHT22;35409;48.776;9.204;2022-10-18T19:14:03;15.60;99.90
49503;DHT22;35409;48.776;9.204;2022-10-18T19:19:03;15.50;99.90
49503;DHT22;35409;48.776;9.204;2022-10-18T19:21:32;15.40;99.90
49503;DHT22;35409;48.776;9.204;2022-10-18T19:23:59;15.40;99.90
49503;DHT22;35409;48.776;9.204;2022-10-18T19:26:30;15.40;99.90
49503;DHT22;35409;48.776;9.204;2022-10-18T19:29:08;15.30;99.90
49503;DHT22;35409;48.776;9.204;2022-10-18T19:31:36;15.30;99.90
49503;DHT22;35409;48.776;9.204;2022-10-18T19:34:04;15.20;99.90
49503;DHT22;35409;48.776;9.204;2022-10-18T19:36:30;15.20;99.90
49503;DHT22;35409;48.776;9.204;2022-10-18T19:38:57;15.10;99.90
49503;DHT22;35409;48.776;9.204;2022-10-18T19:41:23;15.10;99.90
49503;DHT22;35409;48.776;9.204;2022-10-18T19:43:49;15.00;99.90
49503;DHT22;35409;48.776;9.204;2022-10-18T19:46:15;15.00;99.90
49503;DHT22;35409;48.776;9.204;2022-10-18T19:48:41;15.00;99.90
49503;DHT22;35409;48.776;9.204;2022-10-18T19:51:07;14.90;99.90
49503;DHT22;35409;48.776;9.204;2022-10-18T19:53:33;15.00;99.90
49503;DHT22;35409;48.776;9.204;2022-10-18T19:56:01;15.00;99.90
49503;DHT22;35409;48.776;9.204;2022-10-18T19:58:27;14.90;99.90
49503;DHT22;35409;48.776;9.204;2022-10-18T20:00:56;14.90;99.90
49503;DHT22;35409;48.776;9.204;2022-10-18T20:03:23;14.90;99.90
49503;DHT22;35409;48.776;9.204;2022-10-18T20:06:00;14.90;99.90
49503;DHT22;35409;48.776;9.204;2022-10-18T20:08:28;14.90;99.90
49503;DHT22;35409;48.776;9.204;2022-10-18T20:10:54;14.90;99.90
49503;DHT22;35409;48.776;9.204;2022-10-18T20:13:22;14.80;99.90
49503;DHT22;35409;48.776;9.204;2022-10-18T20:15:49;14.80;99.90
49503;DHT22;35409;48.776;9.204;2022-10-18T20:18:16;14.80;99.90
49503;DHT22;35409;48.776;9.204;2022-10-18T20:20:42;14.70;99.90
49503;DHT22;35409;48.776;9.204;2022-10-18T20:23:08;14.70;99.90
49503;DHT22;35409;48.776;9.204;2022-10-18T20:25:34;14.60;99.90
49503;DHT22;35409;48.776;9.204;2022-10-18T20:27:59;14.60;99.90
49503;DHT22;35409;48.776;9.204;2022-10-18T20:30:25;14.60;99.90
49503;DHT22;35409;48.776;9.204;2022-10-18T20:32:51;14.60;99.90
49503;DHT22;35409;48.776;9.204;2022-10-18T20:35:18;14.60;99.90
49503;DHT22;35409;48.776;9.204;2022-10-18T20:37:43;14.60;99.90
49503;DHT22;35409;48.776;9.204;2022-10-18T20:40:10;14.60;99.90
49503;DHT22;35409;48.776;9.204;2022-10-18T20:42:36;14.50;99.90
49503;DHT22;35409;48.776;9.204;2022-10-18T20:45:01;14.50;99.90
49503;DHT22;35409;48.776;9.204;2022-10-18T20:47:28;14.50;99.90
49503;DHT22;35409;48.776;9.204;2022-10-18T20:49:53;14.50;99.90
49503;DHT22;35409;48.776;9.204;2022-10-18T20:52:19;14.40;99.90
49503;DHT22;35409;48.776;9.204;2022-10-18T20:54:45;14.50;99.90
49503;DHT22;35409;48.776;9.204;2022-10-18T20:57:10;14.50;99.90
49503;DHT22;35409;48.776;9.204;2022-10-18T20:59:36;14.40;99.90
49503;DHT22;35409;48.776;9.204;2022-10-18T21:02:02;14.40;99.90
49503;DHT22;35409;48.776;9.204;2022-10-18T21:04:28;14.50;99.90
49503;DHT22;35409;48.776;9.204;2022-10-18T21:06:54;14.40;99.90
49503;DHT22;35409;48.776;9.204;2022-10-18T21:09:19;14.40;99.90
49503;DHT22;35409;48.776;9.204;2022-10-18T21:11:51;14.40;99.90
49503;DHT22;35409;48.776;9.204;2022-10-18T21:14:20;14.40;99.90
49503;DHT22;35409;48.776;9.204;2022-10-18T21:16:47;14.40;99.90
49503;DHT22;35409;48.776;9.204;2022-10-18T21:19:21;14.40;99.90
49503;DHT22;35409;48.776;9.204;2022-10-18T21:21:49;14.40;99.90
49503;DHT22;35409;48.776;9.204;2022-10-18T21:24:16;14.40;99.90
49503;DHT22;35409;48.776;9.204;2022-10-18T21:26:42;14.40;99.90
49503;DHT22;35409;48.776;9.204;2022-10-18T21:29:09;14.30;99.90
49503;DHT22;35409;48.776;9.204;2022-10-18T21:31:37;14.30;99.90
49503;DHT22;35409;48.776;9.204;2022-10-18T21:34:13;14.30;99.90
49503;DHT22;35409;48.776;9.204;2022-10-18T21:36:40;14.20;99.90
